Pontoon, Arkansas
Current Conditions -  °F | °C
As of 2:53 AM on Thursday 27 Nov 2014 (Local Time) from KRUE Reporting Station
Clear Clear  
Wind Chill: 33°   Ceiling: Unl
Heat Index: 38°   Visibility: 10mi
Dew Point: 25°   Wind: 7mph
Humidity: 60%   Direction: 310°NW
Pressure: 30.39"   Gusts: NA
Location:  35.031°N, 93.0373°W
Report Text: KRUE 270853Z AUTO 31006KT 10SM CLR 03/M04 A3039 RMK AO2 SLP288 T00331039 53026
Loading
Personal Weather Stations






























Interactive Weather Map New forecast layout! Learn more

10-Day Weather Forecast

Advertisements
Track Severe Weather on mobile